sensor_id;sensor_type;location;lat;lon;timestamp;P1;durP1;ratioP1;P2;durP2;ratioP2
44862;SDS011;30597;49.628;10.850;2023-09-12T00:02:03;4.90;;;4.50;;
44862;SDS011;30597;49.628;10.850;2023-09-12T00:04:29;5.70;;;5.20;;
44862;SDS011;30597;49.628;10.850;2023-09-12T00:06:55;5.50;;;5.00;;
44862;SDS011;30597;49.628;10.850;2023-09-12T00:09:21;5.03;;;4.73;;
44862;SDS011;30597;49.628;10.850;2023-09-12T00:11:46;5.67;;;5.20;;
44862;SDS011;30597;49.628;10.850;2023-09-12T00:14:14;5.20;;;4.80;;
44862;SDS011;30597;49.628;10.850;2023-09-12T00:16:41;6.00;;;5.53;;
44862;SDS011;30597;49.628;10.850;2023-09-12T00:19:07;5.23;;;4.73;;
44862;SDS011;30597;49.628;10.850;2023-09-12T00:21:32;5.60;;;5.20;;
44862;SDS011;30597;49.628;10.850;2023-09-12T00:23:58;5.00;;;4.60;;
44862;SDS011;30597;49.628;10.850;2023-09-12T00:26:23;5.37;;;5.07;;
44862;SDS011;30597;49.628;10.850;2023-09-12T00:28:49;5.43;;;4.93;;
44862;SDS011;30597;49.628;10.850;2023-09-12T00:31:14;5.50;;;5.10;;
44862;SDS011;30597;49.628;10.850;2023-09-12T00:33:40;5.00;;;4.60;;
44862;SDS011;30597;49.628;10.850;2023-09-12T00:36:05;5.83;;;5.40;;
44862;SDS011;30597;49.628;10.850;2023-09-12T00:38:31;5.30;;;4.90;;
44862;SDS011;30597;49.628;10.850;2023-09-12T00:40:57;5.60;;;5.20;;
44862;SDS011;30597;49.628;10.850;2023-09-12T00:43:22;5.77;;;5.27;;
44862;SDS011;30597;49.628;10.850;2023-09-12T00:45:48;5.77;;;5.27;;
44862;SDS011;30597;49.628;10.850;2023-09-12T00:48:13;5.80;;;5.30;;
44862;SDS011;30597;49.628;10.850;2023-09-12T00:50:41;5.80;;;5.30;;
44862;SDS011;30597;49.628;10.850;2023-09-12T00:53:08;5.60;;;5.10;;
44862;SDS011;30597;49.628;10.850;2023-09-12T00:55:34;5.50;;;5.10;;
44862;SDS011;30597;49.628;10.850;2023-09-12T00:58:03;5.77;;;5.37;;
44862;SDS011;30597;49.628;10.850;2023-09-12T01:00:29;5.30;;;4.90;;
44862;SDS011;30597;49.628;10.850;2023-09-12T01:02:55;5.33;;;4.93;;
44862;SDS011;30597;49.628;10.850;2023-09-12T01:05:21;5.77;;;5.30;;
44862;SDS011;30597;49.628;10.850;2023-09-12T01:07:47;5.73;;;5.23;;
44862;SDS011;30597;49.628;10.850;2023-09-12T01:10:13;5.00;;;4.70;;
44862;SDS011;30597;49.628;10.850;2023-09-12T01:12:39;5.10;;;4.70;;
44862;SDS011;30597;49.628;10.850;2023-09-12T01:15:05;5.40;;;5.00;;
44862;SDS011;30597;49.628;10.850;2023-09-12T01:17:35;6.27;;;5.67;;
44862;SDS011;30597;49.628;10.850;2023-09-12T01:20:01;5.53;;;5.07;;
44862;SDS011;30597;49.628;10.850;2023-09-12T01:22:40;5.70;;;5.20;;
44862;SDS011;30597;49.628;10.850;2023-09-12T01:28:02;5.13;;;4.73;;
44862;SDS011;30597;49.628;10.850;2023-09-12T01:30:31;5.60;;;5.10;;
44862;SDS011;30597;49.628;10.850;2023-09-12T01:32:59;9.30;;;5.27;;
44862;SDS011;30597;49.628;10.850;2023-09-12T01:35:26;6.23;;;5.63;;
44862;SDS011;30597;49.628;10.850;2023-09-12T01:37:51;14.60;;;13.20;;
44862;SDS011;30597;49.628;10.850;2023-09-12T01:40:17;17.97;;;16.37;;
44862;SDS011;30597;49.628;10.850;2023-09-12T01:42:45;17.80;;;16.20;;
44862;SDS011;30597;49.628;10.850;2023-09-12T01:45:14;15.60;;;14.10;;
44862;SDS011;30597;49.628;10.850;2023-09-12T01:47:42;13.83;;;12.63;;
44862;SDS011;30597;49.628;10.850;2023-09-12T01:50:10;13.63;;;12.33;;
44862;SDS011;30597;49.628;10.850;2023-09-12T01:52:38;13.30;;;12.10;;
44862;SDS011;30597;49.628;10.850;2023-09-12T01:55:05;12.30;;;11.10;;
44862;SDS011;30597;49.628;10.850;2023-09-12T01:57:34;12.70;;;11.60;;
44862;SDS011;30597;49.628;10.850;2023-09-12T02:00:00;12.30;;;11.20;;
44862;SDS011;30597;49.628;10.850;2023-09-12T02:02:26;10.63;;;9.73;;
44862;SDS011;30597;49.628;10.850;2023-09-12T02:07:35;11.37;;;10.33;;
44862;SDS011;30597;49.628;10.850;2023-09-12T02:10:03;10.73;;;9.83;;
44862;SDS011;30597;49.628;10.850;2023-09-12T02:12:29;10.83;;;9.93;;
44862;SDS011;30597;49.628;10.850;2023-09-12T02:14:56;10.80;;;9.90;;
44862;SDS011;30597;49.628;10.850;2023-09-12T02:17:21;10.83;;;9.93;;
44862;SDS011;30597;49.628;10.850;2023-09-12T02:19:47;11.40;;;10.20;;
44862;SDS011;30597;49.628;10.850;2023-09-12T02:22:13;10.50;;;9.70;;
44862;SDS011;30597;49.628;10.850;2023-09-12T02:24:39;10.80;;;9.90;;
44862;SDS011;30597;49.628;10.850;2023-09-12T02:27:04;11.07;;;9.87;;
44862;SDS011;30597;49.628;10.850;2023-09-12T02:29:30;10.83;;;9.93;;
44862;SDS011;30597;49.628;10.850;2023-09-12T02:31:57;10.37;;;9.57;;
44862;SDS011;30597;49.628;10.850;2023-09-12T02:34:23;10.20;;;9.27;;
44862;SDS011;30597;49.628;10.850;2023-09-12T02:36:48;9.80;;;8.77;;
44862;SDS011;30597;49.628;10.850;2023-09-12T02:39:14;10.50;;;9.40;;
44862;SDS011;30597;49.628;10.850;2023-09-12T02:41:40;10.03;;;9.07;;
44862;SDS011;30597;49.628;10.850;2023-09-12T02:44:06;10.13;;;9.23;;
44862;SDS011;30597;49.628;10.850;2023-09-12T02:46:31;10.33;;;9.43;;
44862;SDS011;30597;49.628;10.850;2023-09-12T02:48:57;9.83;;;8.93;;
44862;SDS011;30597;49.628;10.850;2023-09-12T02:51:24;9.57;;;8.67;;
44862;SDS011;30597;49.628;10.850;2023-09-12T02:53:50;10.27;;;8.47;;
44862;SDS011;30597;49.628;10.850;2023-09-12T02:56:16;9.20;;;8.50;;
44862;SDS011;30597;49.628;10.850;2023-09-12T02:58:41;10.50;;;9.40;;
44862;SDS011;30597;49.628;10.850;2023-09-12T03:01:07;10.27;;;9.30;;
44862;SDS011;30597;49.628;10.850;2023-09-12T03:03:32;9.80;;;9.00;;
44862;SDS011;30597;49.628;10.850;2023-09-12T03:06:01;9.63;;;8.73;;
44862;SDS011;30597;49.628;10.850;2023-09-12T03:08:30;9.73;;;8.80;;
44862;SDS011;30597;49.628;10.850;2023-09-12T03:10:56;9.60;;;8.70;;
44862;SDS011;30597;49.628;10.850;2023-09-12T03:13:23;10.13;;;9.13;;
44862;SDS011;30597;49.628;10.850;2023-09-12T03:15:51;9.43;;;8.63;;
44862;SDS011;30597;49.628;10.850;2023-09-12T03:18:16;10.30;;;9.40;;
44862;SDS011;30597;49.628;10.850;2023-09-12T03:20:42;9.77;;;8.90;;
44862;SDS011;30597;49.628;10.850;2023-09-12T03:23:08;9.00;;;8.20;;
44862;SDS011;30597;49.628;10.850;2023-09-12T03:25:37;9.87;;;9.07;;
44862;SDS011;30597;49.628;10.850;2023-09-12T03:28:04;8.77;;;8.07;;
44862;SDS011;30597;49.628;10.850;2023-09-12T03:30:34;9.30;;;8.50;;
44862;SDS011;30597;49.628;10.850;2023-09-12T03:33:00;9.30;;;8.50;;
44862;SDS011;30597;49.628;10.850;2023-09-12T03:35:26;9.53;;;8.73;;
44862;SDS011;30597;49.628;10.850;2023-09-12T03:37:53;8.70;;;7.90;;
44862;SDS011;30597;49.628;10.850;2023-09-12T03:40:19;9.20;;;8.30;;
44862;SDS011;30597;49.628;10.850;2023-09-12T03:42:44;9.17;;;8.47;;
44862;SDS011;30597;49.628;10.850;2023-09-12T03:45:10;9.10;;;8.40;;
44862;SDS011;30597;49.628;10.850;2023-09-12T03:47:36;9.37;;;8.57;;
44862;SDS011;30597;49.628;10.850;2023-09-12T03:50:01;8.53;;;7.80;;
44862;SDS011;30597;49.628;10.850;2023-09-12T03:52:27;9.70;;;8.80;;
44862;SDS011;30597;49.628;10.850;2023-09-12T03:54:53;8.40;;;7.73;;
44862;SDS011;30597;49.628;10.850;2023-09-12T03:57:18;9.37;;;8.67;;
44862;SDS011;30597;49.628;10.850;2023-09-12T03:59:44;8.13;;;7.53;;
44862;SDS011;30597;49.628;10.850;2023-09-12T04:02:11;8.77;;;8.03;;
44862;SDS011;30597;49.628;10.850;2023-09-12T04:04:37;8.87;;;8.07;;
44862;SDS011;30597;49.628;10.850;2023-09-12T04:07:03;7.83;;;7.17;;
44862;SDS011;30597;49.628;10.850;2023-09-12T04:09:29;9.37;;;8.57;;
44862;SDS011;30597;49.628;10.850;2023-09-12T04:11:54;8.13;;;7.33;;
44862;SDS011;30597;49.628;10.850;2023-09-12T04:14:20;8.40;;;7.80;;
44862;SDS011;30597;49.628;10.850;2023-09-12T04:16:46;9.57;;;8.77;;
44862;SDS011;30597;49.628;10.850;2023-09-12T04:19:13;8.80;;;8.00;;
44862;SDS011;30597;49.628;10.850;2023-09-12T04:21:38;8.07;;;7.47;;
44862;SDS011;30597;49.628;10.850;2023-09-12T04:24:04;8.80;;;8.10;;
44862;SDS011;30597;49.628;10.850;2023-09-12T04:26:30;8.50;;;7.70;;
44862;SDS011;30597;49.628;10.850;2023-09-12T04:28:56;8.23;;;7.57;;
44862;SDS011;30597;49.628;10.850;2023-09-12T04:31:21;9.63;;;8.70;;
44862;SDS011;30597;49.628;10.850;2023-09-12T04:33:47;7.80;;;7.17;;
44862;SDS011;30597;49.628;10.850;2023-09-12T04:36:12;8.93;;;8.27;;
44862;SDS011;30597;49.628;10.850;2023-09-12T04:38:38;9.00;;;8.20;;
44862;SDS011;30597;49.628;10.850;2023-09-12T04:41:03;8.87;;;8.17;;
44862;SDS011;30597;49.628;10.850;2023-09-12T04:43:32;8.47;;;7.77;;
44862;SDS011;30597;49.628;10.850;2023-09-12T04:45:57;8.20;;;7.60;;
44862;SDS011;30597;49.628;10.850;2023-09-12T04:48:23;8.30;;;7.70;;
44862;SDS011;30597;49.628;10.850;2023-09-12T04:50:49;7.60;;;7.00;;
44862;SDS011;30597;49.628;10.850;2023-09-12T04:53:15;8.77;;;8.00;;
44862;SDS011;30597;49.628;10.850;2023-09-12T04:55:42;8.77;;;7.87;;
44862;SDS011;30597;49.628;10.850;2023-09-12T04:58:07;8.07;;;7.40;;
44862;SDS011;30597;49.628;10.850;2023-09-12T05:00:33;9.27;;;8.47;;
44862;SDS011;30597;49.628;10.850;2023-09-12T05:02:59;7.57;;;6.97;;
44862;SDS011;30597;49.628;10.850;2023-09-12T05:05:26;7.67;;;7.07;;
44862;SDS011;30597;49.628;10.850;2023-09-12T05:07:51;8.20;;;7.60;;
44862;SDS011;30597;49.628;10.850;2023-09-12T05:10:17;8.00;;;7.40;;
44862;SDS011;30597;49.628;10.850;2023-09-12T05:12:43;8.30;;;7.70;;
44862;SDS011;30597;49.628;10.850;2023-09-12T05:15:09;8.10;;;7.40;;
44862;SDS011;30597;49.628;10.850;2023-09-12T05:17:35;8.37;;;7.67;;
44862;SDS011;30597;49.628;10.850;2023-09-12T05:20:01;7.83;;;7.23;;
44862;SDS011;30597;49.628;10.850;2023-09-12T05:22:28;8.50;;;7.80;;
44862;SDS011;30597;49.628;10.850;2023-09-12T05:24:54;7.13;;;6.53;;
44862;SDS011;30597;49.628;10.850;2023-09-12T05:27:19;8.40;;;7.60;;
44862;SDS011;30597;49.628;10.850;2023-09-12T05:29:45;8.50;;;7.90;;
44862;SDS011;30597;49.628;10.850;2023-09-12T05:32:10;8.00;;;7.40;;
44862;SDS011;30597;49.628;10.850;2023-09-12T05:34:36;8.90;;;8.00;;
44862;SDS011;30597;49.628;10.850;2023-09-12T05:37:01;8.27;;;7.67;;
44862;SDS011;30597;49.628;10.850;2023-09-12T05:39:28;8.83;;;7.93;;
44862;SDS011;30597;49.628;10.850;2023-09-12T05:41:53;8.13;;;7.53;;
44862;SDS011;30597;49.628;10.850;2023-09-12T05:44:19;7.37;;;6.77;;
44862;SDS011;30597;49.628;10.850;2023-09-12T05:46:45;7.47;;;6.87;;
44862;SDS011;30597;49.628;10.850;2023-09-12T05:49:12;8.30;;;7.60;;
44862;SDS011;30597;49.628;10.850;2023-09-12T05:51:38;8.43;;;7.73;;
44862;SDS011;30597;49.628;10.850;2023-09-12T05:54:03;7.80;;;7.10;;
44862;SDS011;30597;49.628;10.850;2023-09-12T05:56:29;7.33;;;6.77;;
44862;SDS011;30597;49.628;10.850;2023-09-12T05:58:55;6.97;;;6.47;;
44862;SDS011;30597;49.628;10.850;2023-09-12T06:01:20;6.87;;;6.37;;
44862;SDS011;30597;49.628;10.850;2023-09-12T06:03:46;7.30;;;6.70;;
44862;SDS011;30597;49.628;10.850;2023-09-12T06:06:11;7.00;;;6.50;;
44862;SDS011;30597;49.628;10.850;2023-09-12T06:08:37;7.33;;;6.73;;
44862;SDS011;30597;49.628;10.850;2023-09-12T06:11:03;7.93;;;7.33;;
44862;SDS011;30597;49.628;10.850;2023-09-12T06:13:29;7.00;;;6.30;;
44862;SDS011;30597;49.628;10.850;2023-09-12T06:15:55;7.27;;;6.67;;
44862;SDS011;30597;49.628;10.850;2023-09-12T06:18:20;7.50;;;6.90;;
44862;SDS011;30597;49.628;10.850;2023-09-12T06:20:46;7.23;;;6.63;;
44862;SDS011;30597;49.628;10.850;2023-09-12T06:23:12;7.70;;;7.10;;
44862;SDS011;30597;49.628;10.850;2023-09-12T06:25:37;7.40;;;6.90;;
44862;SDS011;30597;49.628;10.850;2023-09-12T06:28:03;9.00;;;6.73;;
44862;SDS011;30597;49.628;10.850;2023-09-12T06:30:29;7.57;;;7.00;;
44862;SDS011;30597;49.628;10.850;2023-09-12T06:32:54;7.63;;;6.93;;
44862;SDS011;30597;49.628;10.850;2023-09-12T06:35:20;6.73;;;6.13;;
44862;SDS011;30597;49.628;10.850;2023-09-12T06:37:45;7.70;;;7.10;;
44862;SDS011;30597;49.628;10.850;2023-09-12T06:40:12;7.33;;;6.63;;
44862;SDS011;30597;49.628;10.850;2023-09-12T06:42:37;6.93;;;6.13;;
44862;SDS011;30597;49.628;10.850;2023-09-12T06:45:03;7.50;;;6.90;;
44862;SDS011;30597;49.628;10.850;2023-09-12T06:47:29;7.50;;;6.80;;
44862;SDS011;30597;49.628;10.850;2023-09-12T06:49:54;7.13;;;6.53;;
44862;SDS011;30597;49.628;10.850;2023-09-12T06:52:20;8.10;;;7.23;;
44862;SDS011;30597;49.628;10.850;2023-09-12T06:54:45;6.67;;;6.10;;
44862;SDS011;30597;49.628;10.850;2023-09-12T06:57:11;7.83;;;6.80;;
44862;SDS011;30597;49.628;10.850;2023-09-12T06:59:37;7.43;;;6.77;;
44862;SDS011;30597;49.628;10.850;2023-09-12T07:02:02;7.30;;;6.70;;
44862;SDS011;30597;49.628;10.850;2023-09-12T07:04:29;7.53;;;6.83;;
44862;SDS011;30597;49.628;10.850;2023-09-12T07:06:54;7.30;;;6.70;;
44862;SDS011;30597;49.628;10.850;2023-09-12T07:09:20;7.23;;;6.60;;
44862;SDS011;30597;49.628;10.850;2023-09-12T07:11:47;7.70;;;7.10;;
44862;SDS011;30597;49.628;10.850;2023-09-12T07:14:12;6.70;;;6.17;;
44862;SDS011;30597;49.628;10.850;2023-09-12T07:16:38;7.40;;;6.80;;
44862;SDS011;30597;49.628;10.850;2023-09-12T07:19:04;7.03;;;6.43;;
44862;SDS011;30597;49.628;10.850;2023-09-12T07:21:30;7.67;;;6.97;;
44862;SDS011;30597;49.628;10.850;2023-09-12T07:23:56;6.53;;;6.03;;
44862;SDS011;30597;49.628;10.850;2023-09-12T07:26:22;6.80;;;6.10;;
44862;SDS011;30597;49.628;10.850;2023-09-12T07:28:48;8.83;;;7.00;;
44862;SDS011;30597;49.628;10.850;2023-09-12T07:31:13;7.17;;;6.67;;
44862;SDS011;30597;49.628;10.850;2023-09-12T07:33:39;7.73;;;7.03;;
44862;SDS011;30597;49.628;10.850;2023-09-12T07:36:06;7.07;;;6.57;;
44862;SDS011;30597;49.628;10.850;2023-09-12T07:38:31;7.10;;;6.50;;
44862;SDS011;30597;49.628;10.850;2023-09-12T07:40:57;7.57;;;6.93;;
44862;SDS011;30597;49.628;10.850;2023-09-12T07:43:25;6.50;;;6.00;;
44862;SDS011;30597;49.628;10.850;2023-09-12T07:45:54;7.17;;;6.67;;
44862;SDS011;30597;49.628;10.850;2023-09-12T07:48:23;6.97;;;6.37;;
44862;SDS011;30597;49.628;10.850;2023-09-12T07:50:49;6.40;;;5.90;;
44862;SDS011;30597;49.628;10.850;2023-09-12T07:53:16;7.27;;;6.77;;
44862;SDS011;30597;49.628;10.850;2023-09-12T07:55:42;7.10;;;6.50;;
44862;SDS011;30597;49.628;10.850;2023-09-12T07:58:14;6.73;;;6.23;;
44862;SDS011;30597;49.628;10.850;2023-09-12T08:00:43;6.63;;;6.03;;
44862;SDS011;30597;49.628;10.850;2023-09-12T08:03:08;6.40;;;6.00;;
44862;SDS011;30597;49.628;10.850;2023-09-12T08:05:34;6.20;;;5.80;;
44862;SDS011;30597;49.628;10.850;2023-09-12T08:08:00;6.50;;;6.00;;
44862;SDS011;30597;49.628;10.850;2023-09-12T08:10:26;7.40;;;6.80;;
44862;SDS011;30597;49.628;10.850;2023-09-12T08:12:51;7.13;;;6.53;;
44862;SDS011;30597;49.628;10.850;2023-09-12T08:15:17;6.77;;;6.27;;
44862;SDS011;30597;49.628;10.850;2023-09-12T08:17:42;7.10;;;6.50;;
44862;SDS011;30597;49.628;10.850;2023-09-12T08:20:08;7.63;;;7.00;;
44862;SDS011;30597;49.628;10.850;2023-09-12T08:22:37;6.43;;;5.93;;
44862;SDS011;30597;49.628;10.850;2023-09-12T08:25:03;6.70;;;6.10;;
44862;SDS011;30597;49.628;10.850;2023-09-12T08:27:29;6.50;;;5.97;;
44862;SDS011;30597;49.628;10.850;2023-09-12T08:29:55;5.80;;;5.30;;
44862;SDS011;30597;49.628;10.850;2023-09-12T08:32:20;6.50;;;6.00;;
44862;SDS011;30597;49.628;10.850;2023-09-12T08:34:46;6.80;;;6.20;;
44862;SDS011;30597;49.628;10.850;2023-09-12T08:37:11;7.60;;;5.43;;
44862;SDS011;30597;49.628;10.850;2023-09-12T08:39:41;6.80;;;6.20;;
44862;SDS011;30597;49.628;10.850;2023-09-12T08:42:08;7.33;;;6.07;;
44862;SDS011;30597;49.628;10.850;2023-09-12T08:44:37;7.23;;;6.63;;
44862;SDS011;30597;49.628;10.850;2023-09-12T08:47:03;7.40;;;6.57;;
44862;SDS011;30597;49.628;10.850;2023-09-12T08:49:31;7.07;;;6.57;;
44862;SDS011;30597;49.628;10.850;2023-09-12T08:51:59;6.93;;;6.33;;
44862;SDS011;30597;49.628;10.850;2023-09-12T08:54:25;7.37;;;6.77;;
44862;SDS011;30597;49.628;10.850;2023-09-12T08:56:51;7.00;;;6.40;;
44862;SDS011;30597;49.628;10.850;2023-09-12T08:59:16;7.03;;;6.50;;
44862;SDS011;30597;49.628;10.850;2023-09-12T09:01:42;6.00;;;5.50;;
44862;SDS011;30597;49.628;10.850;2023-09-12T09:04:09;7.60;;;6.57;;
44862;SDS011;30597;49.628;10.850;2023-09-12T09:06:35;6.97;;;6.40;;
44862;SDS011;30597;49.628;10.850;2023-09-12T09:09:04;6.87;;;6.37;;
44862;SDS011;30597;49.628;10.850;2023-09-12T09:11:30;8.03;;;7.43;;
44862;SDS011;30597;49.628;10.850;2023-09-12T09:13:56;7.50;;;6.90;;
44862;SDS011;30597;49.628;10.850;2023-09-12T09:16:21;7.50;;;6.90;;
44862;SDS011;30597;49.628;10.850;2023-09-12T09:21:17;7.00;;;6.40;;
44862;SDS011;30597;49.628;10.850;2023-09-12T09:23:49;7.70;;;7.10;;
44862;SDS011;30597;49.628;10.850;2023-09-12T09:26:15;6.60;;;6.10;;
44862;SDS011;30597;49.628;10.850;2023-09-12T09:28:41;7.33;;;6.73;;
44862;SDS011;30597;49.628;10.850;2023-09-12T09:31:10;7.23;;;6.70;;
44862;SDS011;30597;49.628;10.850;2023-09-12T09:33:40;7.13;;;6.50;;
44862;SDS011;30597;49.628;10.850;2023-09-12T09:36:06;6.43;;;5.93;;
44862;SDS011;30597;49.628;10.850;2023-09-12T09:38:35;6.73;;;6.23;;
44862;SDS011;30597;49.628;10.850;2023-09-12T09:41:03;6.17;;;5.70;;
44862;SDS011;30597;49.628;10.850;2023-09-12T09:43:30;7.03;;;6.43;;
44862;SDS011;30597;49.628;10.850;2023-09-12T09:45:59;6.80;;;6.30;;
44862;SDS011;30597;49.628;10.850;2023-09-12T09:48:25;6.57;;;6.07;;
44862;SDS011;30597;49.628;10.850;2023-09-12T09:51:02;7.40;;;6.83;;
44862;SDS011;30597;49.628;10.850;2023-09-12T09:53:29;6.23;;;5.73;;
44862;SDS011;30597;49.628;10.850;2023-09-12T09:56:13;6.17;;;5.70;;
44862;SDS011;30597;49.628;10.850;2023-09-12T09:58:55;6.00;;;5.30;;
44862;SDS011;30597;49.628;10.850;2023-09-12T10:01:22;7.67;;;6.97;;
44862;SDS011;30597;49.628;10.850;2023-09-12T10:03:52;6.70;;;6.10;;
44862;SDS011;30597;49.628;10.850;2023-09-12T10:06:20;6.47;;;6.00;;
44862;SDS011;30597;49.628;10.850;2023-09-12T10:08:53;7.00;;;6.50;;
44862;SDS011;30597;49.628;10.850;2023-09-12T10:11:23;6.80;;;6.20;;
44862;SDS011;30597;49.628;10.850;2023-09-12T10:13:52;6.37;;;5.87;;
44862;SDS011;30597;49.628;10.850;2023-09-12T10:16:23;6.40;;;5.90;;
44862;SDS011;30597;49.628;10.850;2023-09-12T10:18:57;6.67;;;6.13;;
44862;SDS011;30597;49.628;10.850;2023-09-12T10:21:28;7.80;;;7.17;;
44862;SDS011;30597;49.628;10.850;2023-09-12T10:23:56;7.07;;;6.47;;
44862;SDS011;30597;49.628;10.850;2023-09-12T10:26:23;10.20;;;7.17;;
44862;SDS011;30597;49.628;10.850;2023-09-12T10:28:49;6.30;;;5.80;;
44862;SDS011;30597;49.628;10.850;2023-09-12T10:31:16;7.10;;;6.53;;
44862;SDS011;30597;49.628;10.850;2023-09-12T10:33:42;7.07;;;6.47;;
44862;SDS011;30597;49.628;10.850;2023-09-12T10:36:09;7.30;;;6.70;;
44862;SDS011;30597;49.628;10.850;2023-09-12T10:38:41;6.30;;;5.83;;
44862;SDS011;30597;49.628;10.850;2023-09-12T10:41:12;5.67;;;5.27;;
44862;SDS011;30597;49.628;10.850;2023-09-12T10:43:41;6.47;;;6.00;;
44862;SDS011;30597;49.628;10.850;2023-09-12T10:46:08;6.90;;;6.33;;
44862;SDS011;30597;49.628;10.850;2023-09-12T10:48:35;6.10;;;5.60;;
44862;SDS011;30597;49.628;10.850;2023-09-12T10:51:01;7.33;;;6.50;;
44862;SDS011;30597;49.628;10.850;2023-09-12T10:53:30;7.23;;;6.73;;
44862;SDS011;30597;49.628;10.850;2023-09-12T10:55:59;6.67;;;6.17;;
44862;SDS011;30597;49.628;10.850;2023-09-12T10:58:25;7.53;;;6.80;;
44862;SDS011;30597;49.628;10.850;2023-09-12T11:03:51;6.43;;;5.90;;
44862;SDS011;30597;49.628;10.850;2023-09-12T11:06:21;6.30;;;5.80;;
44862;SDS011;30597;49.628;10.850;2023-09-12T11:11:43;6.83;;;6.23;;
44862;SDS011;30597;49.628;10.850;2023-09-12T11:14:13;7.23;;;6.70;;
44862;SDS011;30597;49.628;10.850;2023-09-12T11:16:40;8.10;;;6.70;;
44862;SDS011;30597;49.628;10.850;2023-09-12T11:21:42;7.50;;;6.90;;
44862;SDS011;30597;49.628;10.850;2023-09-12T11:24:08;6.80;;;6.20;;
44862;SDS011;30597;49.628;10.850;2023-09-12T11:26:34;6.87;;;6.27;;
44862;SDS011;30597;49.628;10.850;2023-09-12T11:29:12;7.70;;;7.10;;
44862;SDS011;30597;49.628;10.850;2023-09-12T11:31:38;5.63;;;5.13;;
44862;SDS011;30597;49.628;10.850;2023-09-12T11:34:10;7.07;;;6.47;;
44862;SDS011;30597;49.628;10.850;2023-09-12T11:36:41;7.10;;;6.23;;
44862;SDS011;30597;49.628;10.850;2023-09-12T11:39:23;6.50;;;6.00;;
44862;SDS011;30597;49.628;10.850;2023-09-12T11:42:00;7.07;;;6.40;;
44862;SDS011;30597;49.628;10.850;2023-09-12T11:44:27;6.40;;;5.90;;
44862;SDS011;30597;49.628;10.850;2023-09-12T11:46:55;7.60;;;7.00;;
44862;SDS011;30597;49.628;10.850;2023-09-12T11:49:28;6.93;;;6.33;;
44862;SDS011;30597;49.628;10.850;2023-09-12T11:52:00;7.33;;;6.57;;
44862;SDS011;30597;49.628;10.850;2023-09-12T11:54:26;5.97;;;5.43;;
44862;SDS011;30597;49.628;10.850;2023-09-12T11:56:52;9.00;;;6.53;;
44862;SDS011;30597;49.628;10.850;2023-09-12T11:59:27;6.80;;;6.20;;
44862;SDS011;30597;49.628;10.850;2023-09-12T12:01:54;6.60;;;6.00;;
44862;SDS011;30597;49.628;10.850;2023-09-12T12:04:21;6.20;;;5.70;;
44862;SDS011;30597;49.628;10.850;2023-09-12T12:06:49;6.73;;;6.13;;
44862;SDS011;30597;49.628;10.850;2023-09-12T12:09:16;6.77;;;6.27;;
44862;SDS011;30597;49.628;10.850;2023-09-12T12:11:44;6.60;;;6.10;;
44862;SDS011;30597;49.628;10.850;2023-09-12T12:14:14;6.50;;;5.90;;
44862;SDS011;30597;49.628;10.850;2023-09-12T12:16:41;6.73;;;6.13;;
44862;SDS011;30597;49.628;10.850;2023-09-12T12:19:08;6.20;;;5.70;;
44862;SDS011;30597;49.628;10.850;2023-09-12T12:21:34;6.27;;;5.77;;
44862;SDS011;30597;49.628;10.850;2023-09-12T12:24:00;7.40;;;6.70;;
44862;SDS011;30597;49.628;10.850;2023-09-12T12:26:27;6.00;;;5.50;;
44862;SDS011;30597;49.628;10.850;2023-09-12T12:28:53;6.77;;;6.07;;
44862;SDS011;30597;49.628;10.850;2023-09-12T12:31:19;7.37;;;6.77;;
44862;SDS011;30597;49.628;10.850;2023-09-12T12:33:51;6.43;;;5.93;;
44862;SDS011;30597;49.628;10.850;2023-09-12T12:36:18;6.03;;;5.53;;
44862;SDS011;30597;49.628;10.850;2023-09-12T12:38:45;5.80;;;5.30;;
44862;SDS011;30597;49.628;10.850;2023-09-12T12:41:28;6.77;;;6.10;;
44862;SDS011;30597;49.628;10.850;2023-09-12T12:43:56;6.23;;;5.80;;
44862;SDS011;30597;49.628;10.850;2023-09-12T12:46:25;5.63;;;5.23;;
44862;SDS011;30597;49.628;10.850;2023-09-12T12:48:51;5.60;;;5.20;;
44862;SDS011;30597;49.628;10.850;2023-09-12T12:51:21;5.43;;;5.03;;
44862;SDS011;30597;49.628;10.850;2023-09-12T12:53:49;6.27;;;5.70;;
44862;SDS011;30597;49.628;10.850;2023-09-12T12:56:19;7.20;;;6.60;;
44862;SDS011;30597;49.628;10.850;2023-09-12T12:58:52;5.93;;;5.43;;
44862;SDS011;30597;49.628;10.850;2023-09-12T13:01:20;6.50;;;5.90;;
44862;SDS011;30597;49.628;10.850;2023-09-12T13:03:46;6.43;;;5.90;;
44862;SDS011;30597;49.628;10.850;2023-09-12T13:06:14;6.20;;;5.70;;
44862;SDS011;30597;49.628;10.850;2023-09-12T13:08:43;5.80;;;5.30;;
44862;SDS011;30597;49.628;10.850;2023-09-12T13:11:10;6.50;;;5.97;;
44862;SDS011;30597;49.628;10.850;2023-09-12T13:13:37;6.17;;;5.67;;
44862;SDS011;30597;49.628;10.850;2023-09-12T13:16:04;6.70;;;6.10;;
44862;SDS011;30597;49.628;10.850;2023-09-12T13:18:33;5.47;;;5.07;;
44862;SDS011;30597;49.628;10.850;2023-09-12T13:20:59;6.70;;;6.20;;
44862;SDS011;30597;49.628;10.850;2023-09-12T13:23:24;7.97;;;7.17;;
44862;SDS011;30597;49.628;10.850;2023-09-12T13:25:51;9.77;;;8.73;;
44862;SDS011;30597;49.628;10.850;2023-09-12T13:28:17;9.03;;;7.97;;
44862;SDS011;30597;49.628;10.850;2023-09-12T13:30:42;10.60;;;8.53;;
44862;SDS011;30597;49.628;10.850;2023-09-12T13:33:09;9.90;;;9.00;;
44862;SDS011;30597;49.628;10.850;2023-09-12T13:35:40;9.30;;;7.50;;
44862;SDS011;30597;49.628;10.850;2023-09-12T13:38:06;10.40;;;7.67;;
44862;SDS011;30597;49.628;10.850;2023-09-12T13:40:44;8.70;;;7.80;;
44862;SDS011;30597;49.628;10.850;2023-09-12T13:43:10;9.37;;;7.53;;
44862;SDS011;30597;49.628;10.850;2023-09-12T13:45:36;8.40;;;7.70;;
44862;SDS011;30597;49.628;10.850;2023-09-12T13:48:02;8.70;;;7.80;;
44862;SDS011;30597;49.628;10.850;2023-09-12T13:50:29;9.10;;;8.27;;
44862;SDS011;30597;49.628;10.850;2023-09-12T13:52:55;8.60;;;7.80;;
44862;SDS011;30597;49.628;10.850;2023-09-12T13:55:24;8.50;;;7.70;;
44862;SDS011;30597;49.628;10.850;2023-09-12T13:57:50;8.27;;;7.50;;
44862;SDS011;30597;49.628;10.850;2023-09-12T14:00:16;8.53;;;7.73;;
44862;SDS011;30597;49.628;10.850;2023-09-12T14:02:42;9.47;;;8.47;;
44862;SDS011;30597;49.628;10.850;2023-09-12T14:05:09;8.80;;;8.10;;
44862;SDS011;30597;49.628;10.850;2023-09-12T14:07:35;8.60;;;7.80;;
44862;SDS011;30597;49.628;10.850;2023-09-12T14:10:02;9.00;;;8.10;;
44862;SDS011;30597;49.628;10.850;2023-09-12T14:12:27;8.87;;;8.07;;
44862;SDS011;30597;49.628;10.850;2023-09-12T14:14:53;9.40;;;8.60;;
44862;SDS011;30597;49.628;10.850;2023-09-12T14:17:19;10.07;;;8.93;;
44862;SDS011;30597;49.628;10.850;2023-09-12T14:19:45;10.57;;;9.10;;
44862;SDS011;30597;49.628;10.850;2023-09-12T14:22:11;11.37;;;10.10;;
44862;SDS011;30597;49.628;10.850;2023-09-12T14:24:36;8.43;;;7.63;;
44862;SDS011;30597;49.628;10.850;2023-09-12T14:27:02;9.13;;;8.20;;
44862;SDS011;30597;49.628;10.850;2023-09-12T14:29:29;9.70;;;8.80;;
44862;SDS011;30597;49.628;10.850;2023-09-12T14:31:55;10.33;;;8.13;;
44862;SDS011;30597;49.628;10.850;2023-09-12T14:34:24;10.40;;;8.50;;
44862;SDS011;30597;49.628;10.850;2023-09-12T14:36:54;9.27;;;8.40;;
44862;SDS011;30597;49.628;10.850;2023-09-12T14:39:21;9.30;;;8.23;;
44862;SDS011;30597;49.628;10.850;2023-09-12T14:41:47;9.10;;;8.40;;
44862;SDS011;30597;49.628;10.850;2023-09-12T14:44:17;8.97;;;8.00;;
44862;SDS011;30597;49.628;10.850;2023-09-12T14:46:43;9.93;;;8.93;;
44862;SDS011;30597;49.628;10.850;2023-09-12T14:49:09;10.30;;;9.20;;